createdAt,value
2023-04-22T00:01:19.395Z,16.50
2023-04-22T00:03:53.006Z,16.60
2023-04-22T00:06:26.754Z,16.50
2023-04-22T00:09:01.516Z,16.60
2023-04-22T00:11:34.819Z,16.50
2023-04-22T00:14:08.146Z,16.60
2023-04-22T00:16:42.001Z,17.00
2023-04-22T00:19:15.516Z,17.20
2023-04-22T00:21:48.752Z,17.30
2023-04-22T00:24:23.777Z,16.80
2023-04-22T00:26:56.660Z,16.60
2023-04-22T00:29:30.888Z,16.60
2023-04-22T00:32:04.660Z,16.50
2023-04-22T00:34:38.134Z,16.50
2023-04-22T00:37:12.599Z,16.50
2023-04-22T00:39:47.793Z,16.50
2023-04-22T00:42:21.945Z,16.70
2023-04-22T00:44:56.599Z,16.70
2023-04-22T00:47:30.841Z,16.80
2023-04-22T00:50:04.769Z,16.90
2023-04-22T00:52:37.959Z,16.90
2023-04-22T00:55:16.236Z,16.80
2023-04-22T00:57:50.157Z,16.80
2023-04-22T01:00:28.388Z,16.90
2023-04-22T01:03:02.984Z,17.00
2023-04-22T01:05:36.711Z,17.50
2023-04-22T01:08:10.086Z,17.60
2023-04-22T01:10:46.441Z,17.80
2023-04-22T01:13:19.510Z,17.90
2023-04-22T01:15:53.047Z,17.90
2023-04-22T01:18:26.263Z,17.60
2023-04-22T01:21:00.746Z,17.60
2023-04-22T01:23:37.102Z,17.50
2023-04-22T01:26:10.734Z,17.50
2023-04-22T01:28:44.063Z,17.40
2023-04-22T01:31:17.790Z,17.60
2023-04-22T01:33:50.988Z,17.20
2023-04-22T01:36:24.511Z,17.00
2023-04-22T01:38:59.553Z,17.40
2023-04-22T01:41:33.630Z,17.30
2023-04-22T01:44:08.481Z,17.10
2023-04-22T01:46:41.295Z,17.30
2023-04-22T01:49:14.307Z,17.20
2023-04-22T01:51:48.500Z,17.30
2023-04-22T01:54:23.463Z,17.30
2023-04-22T01:56:57.580Z,17.00
2023-04-22T01:59:32.127Z,17.00
2023-04-22T02:02:08.088Z,17.10
2023-04-22T02:04:41.021Z,17.10
2023-04-22T02:07:14.162Z,17.00
2023-04-22T02:09:50.798Z,17.40
2023-04-22T02:12:24.239Z,17.40
2023-04-22T02:14:57.573Z,17.50
2023-04-22T02:17:31.860Z,17.50
2023-04-22T02:20:07.251Z,17.50
2023-04-22T02:22:41.135Z,17.30
2023-04-22T02:25:16.816Z,17.30
2023-04-22T02:27:51.294Z,17.40
2023-04-22T02:30:25.106Z,17.50
2023-04-22T02:32:59.801Z,17.90
2023-04-22T02:35:33.450Z,18.10
2023-04-22T02:38:09.153Z,18.20
2023-04-22T02:40:44.151Z,18.10
2023-04-22T02:43:18.025Z,17.80
2023-04-22T02:45:51.864Z,18.20
2023-04-22T02:48:25.418Z,18.50
2023-04-22T02:51:00.667Z,18.70
2023-04-22T02:53:35.066Z,18.60
2023-04-22T02:56:11.680Z,19.20
2023-04-22T02:58:44.974Z,19.80
2023-04-22T03:01:17.872Z,19.90
2023-04-22T03:03:51.620Z,19.80
2023-04-22T03:06:28.637Z,20.00
2023-04-22T03:09:01.785Z,20.20
2023-04-22T03:14:23.008Z,20.40
2023-04-22T03:16:56.560Z,19.90
2023-04-22T03:19:29.976Z,20.10
2023-04-22T03:22:07.847Z,20.70
2023-04-22T03:24:48.685Z,19.90
2023-04-22T03:27:24.755Z,20.20
2023-04-22T03:30:01.371Z,20.30
2023-04-22T03:32:35.274Z,20.20
2023-04-22T03:35:25.937Z,20.40
2023-04-22T03:38:00.332Z,20.20
2023-04-22T03:40:39.786Z,20.10
2023-04-22T03:43:26.049Z,20.20
2023-04-22T03:46:09.882Z,20.20
2023-04-22T03:48:56.998Z,19.60
2023-04-22T03:54:24.873Z,20.10
2023-04-22T03:56:59.634Z,19.90
2023-04-22T03:59:35.385Z,19.80
2023-04-22T04:02:09.505Z,20.00
2023-04-22T04:04:43.116Z,20.80
2023-04-22T04:07:16.385Z,21.30
2023-04-22T04:09:49.640Z,20.70
2023-04-22T04:12:23.164Z,20.70
2023-04-22T04:14:58.663Z,21.30
2023-04-22T04:17:31.718Z,21.20
2023-04-22T04:20:06.391Z,20.80
2023-04-22T04:22:39.667Z,20.70
2023-04-22T04:25:13.824Z,20.60
2023-04-22T04:27:51.933Z,20.80
2023-04-22T04:30:27.361Z,20.50
2023-04-22T04:33:01.467Z,20.60
2023-04-22T04:35:35.974Z,20.60
2023-04-22T04:38:11.850Z,20.70
2023-04-22T04:40:46.819Z,20.80
2023-04-22T04:43:27.666Z,20.60
2023-04-22T04:46:10.427Z,20.20
2023-04-22T04:48:45.440Z,20.30
2023-04-22T04:51:20.521Z,20.80
2023-04-22T04:53:58.606Z,21.00
2023-04-22T04:57:37.897Z,20.90
2023-04-22T05:00:13.327Z,20.80
2023-04-22T05:02:49.973Z,21.50
2023-04-22T05:05:24.587Z,21.60
2023-04-22T05:07:58.690Z,21.70
2023-04-22T05:10:34.100Z,21.50
2023-04-22T05:13:07.885Z,20.70
2023-04-22T05:15:42.147Z,20.70
2023-04-22T05:18:17.986Z,21.20
2023-04-22T05:20:51.676Z,21.70
2023-04-22T05:26:17.300Z,22.10
2023-04-22T05:28:53.923Z,22.50
2023-04-22T05:31:28.506Z,22.60
2023-04-22T05:34:04.695Z,22.50
2023-04-22T05:36:38.396Z,22.10
2023-04-22T05:39:11.540Z,22.10
2023-04-22T05:41:46.856Z,22.60
2023-04-22T05:44:21.753Z,22.50
2023-04-22T05:46:54.733Z,22.50
2023-04-22T05:49:33.012Z,22.20
2023-04-22T05:52:20.265Z,22.50
2023-04-22T05:55:02.332Z,22.90
2023-04-22T05:57:36.524Z,22.20
2023-04-22T06:00:14.770Z,21.90
2023-04-22T06:02:57.190Z,22.20
2023-04-22T06:05:33.752Z,22.30
2023-04-22T06:08:07.083Z,22.20
2023-04-22T06:10:41.991Z,22.50
2023-04-22T06:13:17.461Z,22.80
2023-04-22T06:15:50.951Z,22.80
2023-04-22T06:18:25.813Z,23.10
2023-04-22T06:21:03.938Z,21.80
2023-04-22T06:23:37.416Z,21.90
2023-04-22T06:26:11.224Z,22.50
2023-04-22T06:28:44.690Z,22.80
2023-04-22T06:31:22.902Z,22.60
2023-04-22T06:33:56.688Z,22.60
2023-04-22T06:36:34.235Z,22.30
2023-04-22T06:39:11.648Z,22.30
2023-04-22T06:42:05.017Z,22.40
2023-04-22T06:45:14.360Z,23.10
2023-04-22T06:47:59.617Z,23.00
2023-04-22T06:50:43.135Z,23.40
2023-04-22T06:53:18.587Z,23.50
2023-04-22T06:55:51.709Z,22.70
2023-04-22T06:58:24.975Z,22.30
2023-04-22T07:00:59.782Z,22.30
2023-04-22T07:03:34.857Z,22.70
2023-04-22T07:06:13.664Z,22.20
2023-04-22T07:08:50.027Z,21.80
2023-04-22T07:11:26.102Z,22.50
2023-04-22T07:14:11.529Z,23.00
2023-04-22T07:16:44.829Z,23.50
2023-04-22T07:19:18.182Z,22.70
2023-04-22T07:21:51.772Z,22.50
2023-04-22T07:24:30.738Z,22.60
2023-04-22T07:27:03.913Z,22.70
2023-04-22T07:29:37.623Z,22.60
2023-04-22T07:32:11.603Z,22.70
2023-04-22T07:34:45.007Z,23.00
2023-04-22T07:37:18.548Z,23.20
2023-04-22T07:39:53.163Z,23.20
2023-04-22T07:42:26.431Z,23.10
2023-04-22T07:44:59.372Z,22.90
2023-04-22T07:47:32.588Z,23.00
2023-04-22T07:50:08.310Z,22.90
2023-04-22T07:52:43.895Z,22.80
2023-04-22T07:55:51.984Z,23.00
2023-04-22T07:58:27.806Z,23.20
2023-04-22T08:01:00.935Z,22.80
2023-04-22T08:03:34.045Z,22.60
2023-04-22T08:06:08.648Z,22.90
2023-04-22T08:08:41.590Z,23.00
2023-04-22T08:11:17.226Z,22.90
2023-04-22T08:13:50.486Z,22.30
2023-04-22T08:16:24.236Z,22.40
2023-04-22T08:18:59.303Z,22.60
2023-04-22T08:21:33.594Z,22.70
2023-04-22T08:24:06.904Z,22.90
2023-04-22T08:26:44.945Z,23.30
2023-04-22T08:29:17.722Z,23.40
2023-04-22T08:31:50.756Z,23.10
2023-04-22T08:34:23.615Z,23.00
2023-04-22T08:36:57.979Z,22.90
2023-04-22T08:39:31.197Z,22.40
2023-04-22T08:42:06.326Z,21.90
2023-04-22T08:44:41.502Z,21.80
2023-04-22T08:47:20.703Z,22.40
2023-04-22T08:49:56.950Z,22.60
2023-04-22T08:52:30.607Z,22.20
2023-04-22T08:55:04.270Z,22.10
2023-04-22T08:57:42.039Z,22.10
2023-04-22T09:00:16.552Z,22.00
2023-04-22T09:02:51.868Z,22.10
2023-04-22T09:05:28.009Z,22.30
2023-04-22T09:08:01.330Z,21.90
2023-04-22T09:10:36.066Z,21.80
2023-04-22T09:13:11.590Z,21.70
2023-04-22T09:15:44.835Z,21.40
2023-04-22T09:18:22.552Z,21.60
2023-04-22T09:21:00.131Z,21.40
2023-04-22T09:23:33.088Z,21.80
2023-04-22T09:26:06.481Z,21.70
2023-04-22T09:28:42.228Z,21.70
2023-04-22T09:31:18.772Z,22.00
2023-04-22T09:33:57.769Z,22.10
2023-04-22T09:36:32.414Z,22.30
2023-04-22T09:39:08.397Z,22.30
2023-04-22T09:41:43.003Z,22.20
2023-04-22T09:44:20.561Z,22.30
2023-04-22T09:46:55.006Z,22.30
2023-04-22T09:49:30.913Z,22.20
2023-04-22T09:52:04.436Z,22.20
2023-04-22T09:54:41.045Z,21.80
2023-04-22T09:57:16.429Z,21.80
2023-04-22T09:59:54.505Z,21.90
2023-04-22T10:02:34.995Z,22.10
2023-04-22T10:05:09.077Z,21.70
2023-04-22T10:07:43.027Z,21.30
2023-04-22T10:10:16.030Z,21.30
2023-04-22T10:12:50.550Z,21.50
2023-04-22T10:15:27.079Z,21.50
2023-04-22T10:18:01.548Z,21.60
2023-04-22T10:20:35.856Z,21.60
2023-04-22T10:23:10.902Z,21.50
2023-04-22T10:25:45.415Z,21.50
2023-04-22T10:28:20.939Z,21.40
2023-04-22T10:30:55.925Z,21.20
2023-04-22T10:33:42.448Z,21.00
2023-04-22T10:36:20.234Z,21.10
2023-04-22T10:39:23.614Z,21.10
2023-04-22T10:42:00.521Z,21.10
2023-04-22T10:44:48.475Z,21.10
2023-04-22T10:47:33.781Z,21.10
2023-04-22T10:50:20.012Z,21.10
2023-04-22T10:52:56.822Z,20.90
2023-04-22T10:55:51.369Z,20.80
2023-04-22T10:58:25.684Z,20.70
2023-04-22T11:01:04.435Z,20.60
2023-04-22T11:03:39.702Z,20.40
2023-04-22T11:06:21.129Z,20.30
2023-04-22T11:09:10.524Z,20.10
2023-04-22T11:11:48.324Z,20.30
2023-04-22T11:14:22.079Z,20.30
2023-04-22T11:16:56.417Z,20.30
2023-04-22T11:19:33.042Z,20.30
2023-04-22T11:22:06.410Z,20.10
2023-04-22T11:24:39.773Z,19.90
2023-04-22T11:27:14.506Z,19.80
2023-04-22T11:29:49.012Z,19.90
2023-04-22T11:32:24.940Z,20.00
2023-04-22T11:35:01.918Z,20.00
2023-04-22T11:37:35.276Z,19.80
2023-04-22T11:40:27.960Z,19.90
2023-04-22T11:43:02.238Z,20.00
2023-04-22T11:45:37.545Z,20.00
2023-04-22T11:48:12.272Z,19.90
2023-04-22T11:50:48.264Z,19.60
2023-04-22T11:53:26.282Z,19.60
2023-04-22T11:55:59.262Z,19.50
2023-04-22T11:58:41.904Z,19.60
2023-04-22T12:01:17.642Z,19.50
2023-04-22T12:03:51.844Z,19.50
2023-04-22T12:06:30.766Z,19.30
2023-04-22T12:09:04.807Z,19.40
2023-04-22T12:11:38.169Z,19.50
2023-04-22T12:14:11.987Z,19.50
2023-04-22T12:26:55.382Z,19.50
2023-04-22T12:29:35.935Z,19.50
2023-04-22T12:32:09.711Z,19.30
2023-04-22T12:34:42.904Z,19.20
2023-04-22T12:37:18.234Z,19.30
2023-04-22T12:39:56.837Z,19.30
2023-04-22T12:42:31.275Z,19.30
2023-04-22T12:45:06.756Z,19.30
2023-04-22T12:47:40.296Z,19.30
2023-04-22T12:50:16.516Z,19.20
2023-04-22T12:52:51.882Z,19.00
2023-04-22T12:55:28.306Z,19.10
2023-04-22T12:58:03.097Z,19.00
2023-04-22T13:00:37.349Z,19.10
2023-04-22T13:03:11.423Z,18.90
2023-04-22T13:05:44.813Z,18.80
2023-04-22T13:08:18.261Z,18.90
2023-04-22T13:10:56.333Z,18.80
2023-04-22T13:13:30.560Z,18.80
2023-04-22T13:16:05.827Z,18.90
2023-04-22T13:18:40.199Z,18.90
2023-04-22T13:21:17.092Z,19.10
2023-04-22T13:23:51.201Z,19.10
2023-04-22T13:26:34.117Z,19.20
2023-04-22T13:29:12.325Z,19.10
2023-04-22T13:31:47.578Z,19.20
2023-04-22T13:34:21.254Z,19.10
2023-04-22T13:36:58.325Z,19.30
2023-04-22T13:39:34.267Z,19.40
2023-04-22T13:42:11.416Z,19.30
2023-04-22T13:44:45.620Z,19.40
2023-04-22T13:47:19.493Z,19.40
2023-04-22T13:49:54.574Z,19.40
2023-04-22T13:52:30.452Z,19.40
2023-04-22T13:55:03.650Z,19.40
2023-04-22T13:57:38.597Z,19.40
2023-04-22T14:00:12.722Z,19.30
2023-04-22T14:02:45.910Z,19.10
2023-04-22T14:05:19.410Z,19.20
2023-04-22T14:07:53.231Z,19.10
2023-04-22T14:10:28.717Z,19.20
2023-04-22T14:13:05.735Z,19.30
2023-04-22T14:15:42.089Z,19.40
2023-04-22T14:18:16.505Z,19.40
2023-04-22T14:20:50.735Z,19.40
2023-04-22T14:23:24.960Z,19.40
2023-04-22T14:26:07.567Z,19.40
2023-04-22T14:28:46.230Z,19.30
2023-04-22T14:31:21.142Z,19.40
2023-04-22T14:33:56.627Z,19.30
2023-04-22T14:36:31.536Z,19.30
2023-04-22T14:39:05.331Z,19.20
2023-04-22T14:41:40.173Z,19.20
2023-04-22T14:44:16.159Z,19.20
2023-04-22T14:46:52.491Z,19.20
2023-04-22T14:49:26.303Z,19.10
2023-04-22T14:52:02.490Z,19.00
2023-04-22T14:54:37.930Z,19.10
2023-04-22T14:57:12.118Z,18.60
2023-04-22T14:59:47.802Z,18.70
2023-04-22T15:02:21.723Z,18.90
2023-04-22T15:04:57.394Z,18.50
2023-04-22T15:07:31.211Z,18.60
2023-04-22T15:10:04.616Z,18.60
2023-04-22T15:12:40.829Z,18.60
2023-04-22T15:15:17.498Z,18.50
2023-04-22T15:17:51.401Z,18.30
2023-04-22T15:20:24.708Z,18.40
2023-04-22T15:22:58.257Z,18.20
2023-04-22T15:25:32.736Z,18.50
2023-04-22T15:28:06.665Z,18.50
2023-04-22T15:30:41.960Z,18.50
2023-04-22T15:33:15.704Z,18.40
2023-04-22T15:35:51.764Z,18.70
2023-04-22T15:38:25.921Z,18.50
2023-04-22T15:40:58.868Z,18.40
2023-04-22T15:43:32.318Z,18.50
2023-04-22T15:46:08.549Z,18.50
2023-04-22T15:48:42.652Z,18.60
2023-04-22T15:51:17.469Z,18.40
2023-04-22T15:53:50.953Z,18.30
2023-04-22T15:56:24.455Z,18.30
2023-04-22T15:58:58.889Z,18.40
2023-04-22T16:01:34.180Z,18.40
2023-04-22T16:04:07.810Z,18.30
2023-04-22T16:06:41.802Z,18.20
2023-04-22T16:09:14.852Z,18.30
2023-04-22T16:11:48.569Z,18.20
2023-04-22T16:14:23.407Z,18.20
2023-04-22T16:16:59.230Z,18.20
2023-04-22T16:19:33.084Z,17.80
2023-04-22T16:22:06.449Z,17.70
2023-04-22T16:24:41.075Z,17.70
2023-04-22T16:27:18.763Z,17.60
2023-04-22T16:29:52.332Z,17.60
2023-04-22T16:32:27.527Z,17.40
2023-04-22T16:35:00.885Z,17.40
2023-04-22T16:37:35.571Z,17.40
2023-04-22T16:40:10.415Z,17.50
2023-04-22T16:42:44.483Z,17.30
2023-04-22T16:45:18.182Z,17.30
2023-04-22T16:47:53.794Z,17.30
2023-04-22T16:50:27.485Z,17.20
2023-04-22T16:53:01.548Z,17.20
2023-04-22T16:55:36.874Z,17.30
2023-04-22T16:58:10.512Z,17.30
2023-04-22T17:00:47.592Z,17.40
2023-04-22T17:03:23.313Z,17.50
2023-04-22T17:05:57.067Z,17.20
2023-04-22T17:08:30.844Z,17.30
2023-04-22T17:11:04.565Z,17.30
2023-04-22T17:13:37.950Z,17.30
2023-04-22T17:16:12.479Z,17.40
2023-04-22T17:18:48.149Z,17.20
2023-04-22T17:21:24.198Z,17.30
2023-04-22T17:23:58.275Z,17.30
2023-04-22T17:26:31.682Z,17.30
2023-04-22T17:29:05.389Z,17.20
2023-04-22T17:31:39.281Z,17.10
2023-04-22T17:34:14.595Z,16.90
2023-04-22T17:36:47.642Z,17.10
2023-04-22T17:39:20.679Z,17.10
2023-04-22T17:41:54.008Z,16.90
2023-04-22T17:44:30.278Z,16.80
2023-04-22T17:47:05.276Z,16.80
2023-04-22T17:49:42.381Z,16.70
2023-04-22T17:52:15.868Z,16.70
2023-04-22T17:54:49.351Z,16.70
2023-04-22T17:57:22.123Z,16.50
2023-04-22T17:59:55.666Z,16.40
2023-04-22T18:02:29.689Z,16.60
2023-04-22T18:05:06.207Z,16.60
2023-04-22T18:07:39.655Z,16.70
2023-04-22T18:10:14.877Z,16.70
2023-04-22T18:12:48.562Z,16.50
2023-04-22T18:15:22.326Z,16.70
2023-04-22T18:17:55.624Z,16.70
2023-04-22T18:20:31.499Z,16.80
2023-04-22T18:23:04.864Z,16.70
2023-04-22T18:25:38.886Z,16.70
2023-04-22T18:28:12.367Z,16.40
2023-04-22T18:30:46.335Z,16.40
2023-04-22T18:33:20.165Z,16.30
2023-04-22T18:35:55.361Z,15.90
2023-04-22T18:38:28.641Z,16.00
2023-04-22T18:41:01.664Z,16.10
2023-04-22T18:43:34.898Z,16.10
2023-04-22T18:46:08.405Z,15.80
2023-04-22T18:48:42.216Z,16.00
2023-04-22T18:51:17.878Z,16.10
2023-04-22T18:53:52.559Z,15.90
2023-04-22T18:56:25.974Z,15.70
2023-04-22T18:58:59.587Z,15.70
2023-04-22T19:01:33.807Z,15.70
2023-04-22T19:04:08.856Z,15.80
2023-04-22T19:06:44.832Z,15.80
2023-04-22T19:09:18.390Z,15.80
2023-04-22T19:11:51.886Z,15.80
2023-04-22T19:14:25.603Z,15.80
2023-04-22T19:16:59.277Z,16.00
2023-04-22T19:19:32.300Z,16.00
2023-04-22T19:22:07.536Z,15.90
2023-04-22T19:24:41.358Z,15.90
2023-04-22T19:27:15.326Z,15.90
2023-04-22T19:29:52.476Z,15.90
2023-04-22T19:32:26.164Z,16.20
2023-04-22T19:35:01.623Z,16.40
2023-04-22T19:37:38.359Z,16.30
2023-04-22T19:40:12.353Z,16.30
2023-04-22T19:42:45.365Z,16.20
2023-04-22T19:45:18.631Z,16.00
2023-04-22T19:47:52.570Z,16.10
2023-04-22T19:50:26.692Z,15.80
2023-04-22T19:53:06.905Z,15.90
2023-04-22T19:55:41.738Z,15.90
2023-04-22T19:58:15.392Z,15.90
2023-04-22T20:00:49.653Z,16.00
2023-04-22T20:03:24.116Z,16.10
2023-04-22T20:05:59.436Z,15.90
2023-04-22T20:08:35.558Z,16.00
2023-04-22T20:11:08.694Z,15.80
2023-04-22T20:13:44.495Z,15.70
2023-04-22T20:16:21.067Z,15.70
2023-04-22T20:18:54.800Z,15.80
2023-04-22T20:21:28.535Z,16.00
2023-04-22T20:24:06.784Z,15.90
2023-04-22T20:26:41.192Z,16.00
2023-04-22T20:29:15.988Z,15.80
2023-04-22T20:31:50.073Z,15.80
2023-04-22T20:34:24.146Z,15.80
2023-04-22T20:36:57.624Z,15.80
2023-04-22T20:39:33.827Z,15.90
2023-04-22T20:42:08.652Z,15.70
2023-04-22T20:44:42.281Z,15.50
2023-04-22T20:47:17.601Z,15.80
2023-04-22T20:49:51.441Z,15.60
2023-04-22T20:52:24.822Z,15.80
2023-04-22T20:55:00.228Z,16.00
2023-04-22T20:57:33.613Z,15.70
2023-04-22T21:00:08.555Z,15.80
2023-04-22T21:02:43.369Z,15.90
2023-04-22T21:05:17.687Z,15.80
2023-04-22T21:07:56.636Z,16.00
2023-04-22T21:10:33.406Z,16.00
2023-04-22T21:13:07.588Z,16.10
2023-04-22T21:15:43.162Z,16.00
2023-04-22T21:18:18.982Z,15.70
2023-04-22T21:20:55.959Z,15.90
2023-04-22T21:23:29.579Z,15.80
2023-04-22T21:26:06.312Z,15.90
2023-04-22T21:28:40.588Z,16.00
2023-04-22T21:31:14.264Z,15.70
2023-04-22T21:33:47.540Z,15.70
2023-04-22T21:36:23.585Z,15.60
2023-04-22T21:38:58.360Z,15.70
2023-04-22T21:41:35.170Z,15.60
2023-04-22T21:44:08.940Z,15.80
2023-04-22T21:46:42.514Z,15.90
2023-04-22T21:49:15.658Z,15.90
2023-04-22T21:51:48.677Z,15.80
2023-04-22T21:54:22.366Z,15.80
2023-04-22T21:56:57.796Z,15.50
2023-04-22T21:59:31.325Z,15.50
2023-04-22T22:02:05.018Z,15.90
2023-04-22T22:04:39.030Z,15.70
2023-04-22T22:07:13.539Z,15.90
2023-04-22T22:09:46.948Z,16.00
2023-04-22T22:12:21.668Z,15.90
2023-04-22T22:14:55.332Z,15.90
2023-04-22T22:17:29.818Z,15.80
2023-04-22T22:20:03.875Z,15.60
2023-04-22T22:22:37.193Z,15.80
2023-04-22T22:25:11.861Z,15.70
2023-04-22T22:27:50.029Z,16.00
2023-04-22T22:30:24.513Z,16.00
2023-04-22T22:32:57.909Z,16.10
2023-04-22T22:35:31.923Z,15.80
2023-04-22T22:38:04.921Z,15.70
2023-04-22T22:40:37.816Z,15.70
2023-04-22T22:43:12.492Z,15.70
2023-04-22T22:45:45.845Z,15.90
2023-04-22T22:48:19.334Z,16.10
2023-04-22T22:50:52.727Z,16.20
2023-04-22T22:53:26.306Z,16.00
2023-04-22T22:55:59.725Z,16.10
2023-04-22T22:58:37.236Z,16.10
2023-04-22T23:01:10.904Z,15.90
2023-04-22T23:03:44.610Z,15.90
2023-04-22T23:06:18.141Z,16.00
2023-04-22T23:08:51.553Z,16.10
2023-04-22T23:11:25.054Z,16.20
2023-04-22T23:14:00.267Z,16.00
2023-04-22T23:16:33.811Z,16.10
2023-04-22T23:19:07.840Z,16.10
2023-04-22T23:21:43.028Z,15.90
2023-04-22T23:24:17.630Z,15.80
2023-04-22T23:26:50.998Z,16.20
2023-04-22T23:29:26.508Z,16.20
2023-04-22T23:32:00.326Z,16.10
2023-04-22T23:34:35.188Z,16.00
2023-04-22T23:37:09.201Z,16.10
2023-04-22T23:39:43.827Z,16.10
2023-04-22T23:42:17.209Z,15.90
2023-04-22T23:44:51.897Z,15.80
2023-04-22T23:47:24.918Z,15.90
2023-04-22T23:49:58.624Z,16.10
2023-04-22T23:52:31.552Z,16.00
2023-04-22T23:55:06.399Z,16.20
2023-04-22T23:57:40.770Z,16.00
